createdAt,value
2024-02-07T00:01:44.106Z,6.47
2024-02-07T00:03:47.113Z,4.53
2024-02-07T00:05:51.118Z,5.00
2024-02-07T00:07:54.141Z,6.13
2024-02-07T00:09:57.437Z,5.82
2024-02-07T00:12:00.208Z,6.82
2024-02-07T00:14:02.980Z,7.38
2024-02-07T00:16:06.110Z,4.82
2024-02-07T00:18:08.880Z,6.07
2024-02-07T00:20:11.132Z,7.32
2024-02-07T00:22:15.705Z,6.03
2024-02-07T00:24:17.818Z,6.63
2024-02-07T00:26:20.605Z,7.38
2024-02-07T00:28:22.423Z,5.97
2024-02-07T00:30:31.227Z,6.85
2024-02-07T00:32:41.093Z,5.68
2024-02-07T00:34:43.931Z,5.75
2024-02-07T00:36:46.675Z,5.05
2024-02-07T00:38:50.796Z,7.93
2024-02-07T00:40:52.793Z,4.97
2024-02-07T00:42:56.274Z,6.10
2024-02-07T00:44:58.132Z,5.07
2024-02-07T00:47:00.788Z,5.80
2024-02-07T00:49:05.033Z,5.47
2024-02-07T00:51:07.990Z,4.65
2024-02-07T00:53:10.628Z,4.75
2024-02-07T00:55:14.810Z,4.78
2024-02-07T00:57:17.575Z,4.38
2024-02-07T00:59:20.163Z,5.10
2024-02-07T01:01:22.873Z,5.53
2024-02-07T01:03:25.629Z,6.82
2024-02-07T01:05:28.523Z,4.63
2024-02-07T01:07:30.254Z,7.78
2024-02-07T01:09:32.924Z,5.80
2024-02-07T01:11:36.893Z,5.68
2024-02-07T01:13:39.606Z,4.88
2024-02-07T01:15:42.296Z,5.95
2024-02-07T01:17:44.983Z,11.40
2024-02-07T01:19:49.630Z,5.03
2024-02-07T01:21:52.255Z,7.65
2024-02-07T01:23:54.290Z,5.90
2024-02-07T01:25:58.155Z,6.85
2024-02-07T01:28:02.171Z,5.60
2024-02-07T01:30:05.339Z,4.53
2024-02-07T01:32:08.063Z,6.32
2024-02-07T01:34:10.825Z,6.63
2024-02-07T01:36:13.536Z,5.30
2024-02-07T01:38:19.210Z,5.63
2024-02-07T01:40:22.807Z,5.88
2024-02-07T01:42:32.689Z,6.75
2024-02-07T01:44:39.460Z,7.20
2024-02-07T01:46:43.986Z,5.05
2024-02-07T01:48:47.374Z,5.80
2024-02-07T01:50:51.535Z,4.55
2024-02-07T01:52:54.244Z,4.55
2024-02-07T01:54:57.090Z,5.90
2024-02-07T01:56:58.783Z,4.47
2024-02-07T01:59:02.116Z,6.40
2024-02-07T02:01:06.279Z,5.05
2024-02-07T02:03:09.391Z,6.97
2024-02-07T02:05:12.136Z,5.13
2024-02-07T02:07:15.212Z,6.90
2024-02-07T02:09:17.959Z,8.70
2024-02-07T02:11:23.754Z,5.10
2024-02-07T02:13:27.076Z,5.78
2024-02-07T02:15:30.049Z,5.55
2024-02-07T02:17:33.274Z,5.38
2024-02-07T02:19:37.849Z,6.53
2024-02-07T02:21:51.592Z,5.10
2024-02-07T02:24:03.992Z,4.88
2024-02-07T02:26:18.252Z,4.40
2024-02-07T02:28:28.985Z,5.43
2024-02-07T02:30:35.765Z,4.97
2024-02-07T02:32:40.480Z,6.35
2024-02-07T02:34:43.530Z,5.90
2024-02-07T02:36:46.680Z,5.55
2024-02-07T02:38:49.905Z,6.20
2024-02-07T02:40:52.227Z,5.28
2024-02-07T02:42:55.162Z,5.50
2024-02-07T02:44:57.822Z,5.82
2024-02-07T02:47:03.813Z,6.78
2024-02-07T02:49:06.817Z,3.83
2024-02-07T02:51:09.688Z,5.38
2024-02-07T02:53:12.860Z,5.75
2024-02-07T02:55:15.771Z,5.85
2024-02-07T02:57:18.538Z,5.53
2024-02-07T02:59:22.217Z,4.63
2024-02-07T03:01:25.514Z,6.82
2024-02-07T03:03:32.060Z,5.53
2024-02-07T03:05:47.080Z,4.88
2024-02-07T03:08:06.096Z,4.80
2024-02-07T03:10:09.430Z,5.72
2024-02-07T03:12:12.095Z,5.60
2024-02-07T03:14:14.906Z,5.38
2024-02-07T03:16:20.710Z,5.75
2024-02-07T03:18:23.739Z,6.32
2024-02-07T03:20:26.923Z,6.03
2024-02-07T03:22:32.558Z,6.45
2024-02-07T03:24:35.285Z,6.57
2024-02-07T03:26:37.906Z,6.18
2024-02-07T03:28:39.789Z,5.70
2024-02-07T03:30:42.426Z,5.35
2024-02-07T03:32:45.923Z,5.35
2024-02-07T03:34:49.091Z,4.93
2024-02-07T03:36:53.229Z,4.88
2024-02-07T03:38:56.792Z,7.63
2024-02-07T03:40:59.612Z,5.45
2024-02-07T03:43:02.361Z,4.10
2024-02-07T03:45:06.093Z,4.43
2024-02-07T03:47:10.598Z,6.38
2024-02-07T03:51:16.862Z,6.25
2024-02-07T03:53:21.283Z,5.65
2024-02-07T03:55:22.955Z,4.93
2024-02-07T03:57:25.582Z,6.53
2024-02-07T03:59:29.366Z,3.63
2024-02-07T04:01:34.067Z,4.00
2024-02-07T04:03:36.834Z,5.35
2024-02-07T04:05:40.890Z,5.05
2024-02-07T04:07:43.046Z,5.57
2024-02-07T04:09:47.379Z,4.72
2024-02-07T04:11:48.848Z,4.75
2024-02-07T04:13:50.419Z,4.93
2024-02-07T04:16:11.037Z,5.30
2024-02-07T04:18:31.447Z,6.70
2024-02-07T04:20:51.617Z,6.38
2024-02-07T04:23:11.608Z,7.55
2024-02-07T04:25:33.503Z,4.38
2024-02-07T04:27:53.512Z,4.90
2024-02-07T04:30:14.011Z,5.53
2024-02-07T04:32:34.568Z,4.70
2024-02-07T04:34:54.867Z,6.28
2024-02-07T04:37:15.138Z,4.45
2024-02-07T04:39:35.095Z,5.30
2024-02-07T04:41:56.301Z,4.80
2024-02-07T04:44:16.134Z,6.13
2024-02-07T04:46:36.322Z,6.88
2024-02-07T04:48:57.060Z,5.68
2024-02-07T04:51:16.996Z,5.75
2024-02-07T04:53:36.958Z,3.60
2024-02-07T04:55:57.068Z,4.95
2024-02-07T04:58:18.588Z,6.18
2024-02-07T05:00:38.785Z,5.70
2024-02-07T05:02:58.947Z,5.35
2024-02-07T05:05:19.187Z,3.60
2024-02-07T05:07:39.442Z,5.63
2024-02-07T05:09:59.844Z,6.80
2024-02-07T05:12:20.285Z,4.32
2024-02-07T05:16:49.317Z,5.53
2024-02-07T05:18:52.012Z,4.47
2024-02-07T05:20:54.697Z,5.07
2024-02-07T05:22:57.471Z,4.63
2024-02-07T05:25:01.656Z,4.28
2024-02-07T05:27:07.475Z,5.35
2024-02-07T05:29:13.417Z,5.10
2024-02-07T05:31:17.633Z,3.83
2024-02-07T05:33:20.552Z,4.68
2024-02-07T05:35:23.317Z,4.32
2024-02-07T05:37:26.682Z,4.65
2024-02-07T05:39:29.310Z,5.10
2024-02-07T05:41:31.979Z,5.50
2024-02-07T05:43:34.700Z,4.35
2024-02-07T05:45:37.318Z,3.80
2024-02-07T05:47:43.322Z,5.15
2024-02-07T05:49:46.208Z,5.50
2024-02-07T05:52:01.790Z,4.97
2024-02-07T05:54:05.659Z,4.95
2024-02-07T05:56:09.995Z,4.93
2024-02-07T05:58:13.654Z,5.65
2024-02-07T06:00:16.761Z,4.20
2024-02-07T06:02:19.722Z,5.50
2024-02-07T06:04:24.209Z,4.10
2024-02-07T06:06:31.061Z,5.30
2024-02-07T06:08:34.407Z,5.65
2024-02-07T06:10:38.805Z,4.47
2024-02-07T06:12:45.854Z,5.63
2024-02-07T06:14:48.690Z,5.35
2024-02-07T06:16:51.593Z,5.30
2024-02-07T06:18:54.479Z,5.60
2024-02-07T06:20:59.001Z,5.43
2024-02-07T06:23:01.747Z,4.43
2024-02-07T06:25:05.039Z,4.13
2024-02-07T06:27:07.844Z,5.43
2024-02-07T06:29:09.516Z,5.13
2024-02-07T06:31:12.131Z,4.78
2024-02-07T06:33:14.865Z,6.28
2024-02-07T06:35:17.734Z,6.50
2024-02-07T06:37:22.118Z,4.82
2024-02-07T06:39:25.196Z,3.70
2024-02-07T06:41:27.832Z,4.47
2024-02-07T06:43:31.869Z,4.93
2024-02-07T06:45:34.792Z,4.18
2024-02-07T06:47:37.531Z,4.85
2024-02-07T06:49:41.350Z,5.50
2024-02-07T06:51:44.129Z,7.15
2024-02-07T06:53:48.183Z,4.68
2024-02-07T06:55:51.849Z,5.13
2024-02-07T06:57:55.504Z,4.80
2024-02-07T06:59:58.439Z,5.05
2024-02-07T07:02:01.031Z,5.50
2024-02-07T07:04:03.717Z,4.22
2024-02-07T07:06:06.727Z,4.03
2024-02-07T07:08:09.622Z,4.05
2024-02-07T07:10:13.925Z,3.10
2024-02-07T07:12:17.683Z,4.68
2024-02-07T07:14:20.453Z,4.68
2024-02-07T07:16:23.337Z,5.15
2024-02-07T07:18:26.257Z,6.25
2024-02-07T07:20:32.042Z,4.70
2024-02-07T07:22:34.768Z,6.32
2024-02-07T07:24:38.138Z,4.50
2024-02-07T07:26:42.267Z,5.50
2024-02-07T07:28:45.235Z,4.13
2024-02-07T07:30:47.016Z,5.03
2024-02-07T07:32:49.912Z,5.85
2024-02-07T07:34:52.773Z,5.35
2024-02-07T07:36:55.458Z,5.68
2024-02-07T07:38:58.119Z,5.50
2024-02-07T07:41:00.771Z,4.82
2024-02-07T07:43:03.963Z,5.20
2024-02-07T07:45:06.770Z,5.60
2024-02-07T07:47:09.406Z,5.40
2024-02-07T07:49:12.149Z,4.63
2024-02-07T07:51:20.549Z,5.57
2024-02-07T07:53:23.273Z,5.60
2024-02-07T07:55:26.003Z,6.88
2024-02-07T07:57:28.770Z,7.00
2024-02-07T07:59:34.014Z,5.82
2024-02-07T08:01:39.412Z,6.25
2024-02-07T08:03:42.285Z,5.32
2024-02-07T08:05:45.237Z,5.22
2024-02-07T08:07:48.077Z,5.93
2024-02-07T08:09:50.973Z,4.82
2024-02-07T08:11:53.532Z,5.95
2024-02-07T08:13:56.255Z,5.70
2024-02-07T08:16:01.703Z,8.77
2024-02-07T08:18:04.573Z,7.55
2024-02-07T08:20:07.962Z,4.68
2024-02-07T08:22:10.575Z,5.15
2024-02-07T08:24:13.199Z,5.68
2024-02-07T08:26:16.084Z,5.07
2024-02-07T08:28:18.870Z,6.03
2024-02-07T08:30:22.415Z,6.70
2024-02-07T08:32:27.254Z,6.10
2024-02-07T08:34:30.631Z,5.43
2024-02-07T08:36:32.483Z,6.53
2024-02-07T08:38:35.153Z,5.38
2024-02-07T08:40:38.180Z,5.45
2024-02-07T08:42:40.992Z,5.95
2024-02-07T08:44:44.085Z,5.13
2024-02-07T08:46:48.724Z,4.80
2024-02-07T08:48:53.008Z,6.30
2024-02-07T08:50:54.677Z,5.63
2024-02-07T08:52:57.335Z,5.97
2024-02-07T08:55:00.013Z,4.93
2024-02-07T08:57:01.904Z,5.40
2024-02-07T08:59:04.637Z,4.25
2024-02-07T09:01:07.660Z,5.75
2024-02-07T09:03:10.224Z,5.00
2024-02-07T09:05:14.924Z,6.18
2024-02-07T09:07:21.476Z,6.38
2024-02-07T09:09:25.182Z,6.03
2024-02-07T09:11:27.889Z,4.57
2024-02-07T09:13:30.737Z,6.25
2024-02-07T09:15:32.354Z,5.03
2024-02-07T09:17:35.199Z,5.47
2024-02-07T09:19:37.950Z,7.13
2024-02-07T09:21:42.203Z,6.13
2024-02-07T09:23:44.881Z,7.70
2024-02-07T09:25:47.747Z,7.75
2024-02-07T09:27:50.332Z,8.07
2024-02-07T09:30:03.320Z,8.38
2024-02-07T09:32:13.130Z,11.18
2024-02-07T09:34:15.814Z,10.93
2024-02-07T09:36:17.742Z,9.15
2024-02-07T09:38:23.070Z,8.55
2024-02-07T09:40:26.306Z,8.45
2024-02-07T09:42:31.293Z,8.13
2024-02-07T09:44:34.009Z,8.52
2024-02-07T09:46:38.780Z,9.18
2024-02-07T09:48:41.689Z,10.45
2024-02-07T09:50:44.754Z,23.13
2024-02-07T09:52:48.165Z,28.35
2024-02-07T09:54:56.184Z,13.27
2024-02-07T09:56:58.997Z,12.77
2024-02-07T09:59:03.225Z,11.10
2024-02-07T10:01:08.160Z,9.25
2024-02-07T10:03:12.755Z,10.40
2024-02-07T10:05:16.062Z,10.73
2024-02-07T10:07:19.634Z,9.52
2024-02-07T10:09:22.894Z,10.27
2024-02-07T10:11:27.511Z,7.65
2024-02-07T10:13:30.632Z,10.80
2024-02-07T10:15:33.692Z,9.57
2024-02-07T10:17:36.627Z,8.98
2024-02-07T10:19:39.281Z,7.57
2024-02-07T10:21:41.904Z,8.93
2024-02-07T10:23:44.532Z,7.28
2024-02-07T10:25:49.959Z,8.73
2024-02-07T10:28:02.592Z,7.13
2024-02-07T10:30:06.018Z,9.05
2024-02-07T10:32:08.894Z,7.15
2024-02-07T10:34:19.846Z,11.43
2024-02-07T10:36:23.926Z,9.80
2024-02-07T10:38:26.024Z,5.75
2024-02-07T10:40:30.566Z,6.68
2024-02-07T10:42:33.355Z,7.25
2024-02-07T10:44:37.370Z,7.68
2024-02-07T10:46:44.072Z,6.55
2024-02-07T10:48:47.086Z,6.97
2024-02-07T10:50:49.735Z,6.25
2024-02-07T10:52:52.422Z,7.80
2024-02-07T10:54:54.332Z,9.05
2024-02-07T10:56:57.560Z,7.13
2024-02-07T10:59:00.368Z,6.38
2024-02-07T11:01:04.605Z,6.38
2024-02-07T11:03:07.368Z,7.45
2024-02-07T11:05:10.565Z,7.28
2024-02-07T11:07:16.202Z,6.60
2024-02-07T11:09:19.171Z,12.73
2024-02-07T11:11:22.792Z,11.13
2024-02-07T11:13:25.190Z,9.15
2024-02-07T11:15:27.898Z,10.20
2024-02-07T11:17:32.076Z,10.30
2024-02-07T11:19:34.085Z,14.27
2024-02-07T11:21:39.189Z,27.38
2024-02-07T11:23:42.725Z,32.80
2024-02-07T11:25:46.607Z,28.13
2024-02-07T11:27:51.552Z,23.33
2024-02-07T11:29:55.449Z,15.93
2024-02-07T11:31:58.922Z,11.98
2024-02-07T11:34:03.258Z,10.75
2024-02-07T11:36:07.994Z,8.00
2024-02-07T11:38:11.629Z,5.35
2024-02-07T11:42:25.790Z,6.33
2024-02-07T11:44:29.040Z,6.13
2024-02-07T11:46:31.779Z,5.20
2024-02-07T11:48:39.330Z,5.82
2024-02-07T11:50:44.438Z,5.88
2024-02-07T11:52:47.426Z,9.80
2024-02-07T11:54:50.336Z,4.05
2024-02-07T11:56:56.248Z,5.97
2024-02-07T11:59:01.416Z,5.45
2024-02-07T12:01:09.034Z,4.68
2024-02-07T12:03:14.097Z,5.88
2024-02-07T12:05:18.060Z,5.53
2024-02-07T12:07:21.700Z,3.95
2024-02-07T12:09:25.502Z,5.78
2024-02-07T12:11:28.137Z,4.38
2024-02-07T12:13:30.811Z,3.60
2024-02-07T12:15:33.629Z,4.38
2024-02-07T12:17:36.859Z,4.90
2024-02-07T12:19:40.417Z,3.60
2024-02-07T12:21:42.174Z,4.28
2024-02-07T12:23:46.197Z,4.32
2024-02-07T12:25:56.804Z,4.57
2024-02-07T12:28:09.786Z,3.97
2024-02-07T12:30:12.694Z,4.25
2024-02-07T12:32:15.364Z,3.50
2024-02-07T12:34:26.349Z,3.83
2024-02-07T12:36:30.477Z,5.72
2024-02-07T12:38:34.184Z,9.55
2024-02-07T12:40:38.304Z,9.10
2024-02-07T12:42:40.923Z,7.30
2024-02-07T12:44:43.622Z,6.50
2024-02-07T12:46:46.397Z,5.35
2024-02-07T12:48:49.190Z,5.88
2024-02-07T12:50:51.961Z,122.30
2024-02-07T12:52:54.594Z,297.48
2024-02-07T12:54:58.442Z,498.30
2024-02-07T12:57:02.375Z,466.05
2024-02-07T12:59:05.148Z,200.43
2024-02-07T13:01:07.846Z,78.65
2024-02-07T13:03:10.792Z,69.97
2024-02-07T13:05:12.635Z,47.80
2024-02-07T13:07:16.711Z,21.52
2024-02-07T13:09:19.882Z,15.38
2024-02-07T13:11:22.779Z,10.27
2024-02-07T13:13:26.891Z,6.40
2024-02-07T13:15:29.543Z,7.22
2024-02-07T13:17:32.415Z,5.72
2024-02-07T13:19:35.043Z,5.55
2024-02-07T13:21:37.846Z,5.95
2024-02-07T13:23:40.516Z,4.45
2024-02-07T13:25:42.243Z,4.97
2024-02-07T13:27:44.955Z,3.47
2024-02-07T13:29:49.030Z,4.10
2024-02-07T13:31:54.232Z,2.80
2024-02-07T13:33:57.973Z,3.15
2024-02-07T13:36:00.646Z,5.40
2024-02-07T13:38:03.992Z,5.05
2024-02-07T13:40:07.496Z,2.60
2024-02-07T13:42:09.383Z,5.00
2024-02-07T13:44:13.917Z,3.25
2024-02-07T13:46:17.063Z,3.85
2024-02-07T13:48:22.139Z,2.38
2024-02-07T13:50:25.154Z,2.88
2024-02-07T13:52:27.994Z,3.67
2024-02-07T13:54:29.838Z,4.05
2024-02-07T13:56:32.438Z,3.85
2024-02-07T13:58:35.208Z,11.10
2024-02-07T14:00:38.629Z,4.93
2024-02-07T14:02:43.454Z,7.00
2024-02-07T14:04:46.085Z,5.18
2024-02-07T14:06:48.720Z,4.57
2024-02-07T14:08:51.574Z,4.25
2024-02-07T14:10:54.520Z,4.40
2024-02-07T14:12:57.368Z,5.88
2024-02-07T14:14:59.980Z,5.38
2024-02-07T14:17:02.965Z,5.93
2024-02-07T14:19:07.058Z,4.10
2024-02-07T14:21:08.915Z,2.88
2024-02-07T14:23:13.139Z,4.93
2024-02-07T14:25:16.106Z,3.28
2024-02-07T14:27:18.890Z,2.40
2024-02-07T14:29:21.603Z,5.55
2024-02-07T14:31:24.241Z,4.40
2024-02-07T14:33:27.275Z,5.47
2024-02-07T14:35:30.557Z,3.85
2024-02-07T14:37:34.749Z,6.40
2024-02-07T14:39:37.413Z,4.10
2024-02-07T14:41:40.064Z,15.73
2024-02-07T14:43:43.268Z,25.23
2024-02-07T14:45:45.075Z,15.18
2024-02-07T14:47:47.733Z,10.55
2024-02-07T14:49:51.159Z,8.23
2024-02-07T14:51:55.253Z,3.85
2024-02-07T14:53:57.857Z,9.18
2024-02-07T14:56:01.536Z,24.35
2024-02-07T14:58:04.427Z,77.28
2024-02-07T15:00:07.842Z,112.50
2024-02-07T15:02:12.355Z,60.13
2024-02-07T15:04:15.339Z,36.55
2024-02-07T15:06:18.528Z,23.17
2024-02-07T15:08:22.610Z,21.95
2024-02-07T15:10:25.839Z,15.63
2024-02-07T15:12:28.570Z,13.25
2024-02-07T15:14:31.265Z,10.70
2024-02-07T15:16:35.960Z,8.48
2024-02-07T15:18:38.743Z,6.60
2024-02-07T15:20:41.816Z,8.15
2024-02-07T15:22:44.778Z,4.72
2024-02-07T15:24:48.904Z,2.60
2024-02-07T15:26:51.787Z,6.05
2024-02-07T15:28:54.858Z,4.28
2024-02-07T15:30:57.356Z,5.75
2024-02-07T15:33:00.066Z,3.38
2024-02-07T15:35:02.887Z,4.15
2024-02-07T15:37:06.435Z,4.07
2024-02-07T15:39:09.216Z,6.18
2024-02-07T15:41:13.288Z,3.58
2024-02-07T15:43:17.478Z,3.45
2024-02-07T15:45:20.430Z,3.55
2024-02-07T15:47:23.379Z,8.35
2024-02-07T15:49:26.243Z,49.88
2024-02-07T15:51:29.440Z,12.98
2024-02-07T15:53:33.258Z,6.00
2024-02-07T15:55:38.692Z,3.30
2024-02-07T15:57:43.926Z,5.80
2024-02-07T15:59:46.757Z,2.15
2024-02-07T16:01:53.151Z,4.63
2024-02-07T16:03:57.475Z,2.33
2024-02-07T16:06:01.232Z,2.85
2024-02-07T16:08:05.085Z,5.72
2024-02-07T16:10:09.207Z,2.03
2024-02-07T16:12:12.026Z,3.55
2024-02-07T16:14:18.631Z,3.92
2024-02-07T16:16:21.214Z,11.65
2024-02-07T16:18:24.067Z,2.35
2024-02-07T16:20:26.910Z,3.72
2024-02-07T16:22:30.075Z,3.47
2024-02-07T16:24:34.099Z,1.65
2024-02-07T16:26:40.802Z,2.95
2024-02-07T16:28:42.720Z,2.17
2024-02-07T16:30:46.792Z,3.03
2024-02-07T16:32:49.618Z,3.10
2024-02-07T16:34:52.995Z,2.88
2024-02-07T16:36:59.996Z,2.85
2024-02-07T16:39:03.367Z,2.25
2024-02-07T16:41:07.950Z,2.50
2024-02-07T16:43:10.599Z,2.83
2024-02-07T16:45:13.377Z,2.85
2024-02-07T16:47:17.584Z,3.13
2024-02-07T16:49:19.434Z,5.30
2024-02-07T16:51:22.246Z,2.38
2024-02-07T16:53:24.812Z,3.63
2024-02-07T16:55:27.667Z,3.28
2024-02-07T16:57:30.961Z,3.50
2024-02-07T16:59:32.639Z,6.00
2024-02-07T17:01:36.148Z,8.52
2024-02-07T17:03:40.263Z,4.15
2024-02-07T17:05:43.085Z,3.75
2024-02-07T17:07:46.092Z,4.35
2024-02-07T17:09:48.859Z,4.68
2024-02-07T17:11:50.495Z,2.03
2024-02-07T17:13:53.602Z,3.30
2024-02-07T17:15:56.216Z,2.45
2024-02-07T17:17:58.899Z,3.05
2024-02-07T17:20:03.200Z,5.13
2024-02-07T17:22:06.391Z,3.40
2024-02-07T17:24:09.299Z,1.75
2024-02-07T17:26:12.003Z,3.25
2024-02-07T17:28:14.883Z,2.00
2024-02-07T17:30:24.947Z,2.33
2024-02-07T17:32:35.936Z,2.33
2024-02-07T17:34:38.702Z,1.65
2024-02-07T17:36:42.839Z,2.00
2024-02-07T17:38:45.457Z,1.35
2024-02-07T17:40:48.342Z,1.35
2024-02-07T17:42:51.258Z,2.53
2024-02-07T17:44:53.902Z,1.75
2024-02-07T17:46:57.777Z,2.60
2024-02-07T17:48:59.711Z,0.85
2024-02-07T17:51:03.483Z,1.35
2024-02-07T17:53:07.619Z,0.68
2024-02-07T17:55:10.552Z,2.33
2024-02-07T17:57:13.340Z,1.52
2024-02-07T17:59:15.898Z,2.05
2024-02-07T18:01:19.167Z,1.83
2024-02-07T18:03:21.885Z,1.10
2024-02-07T18:05:26.879Z,1.70
2024-02-07T18:07:28.927Z,1.55
2024-02-07T18:09:32.975Z,1.65
2024-02-07T18:11:35.646Z,2.50
2024-02-07T18:13:41.524Z,3.28
2024-02-07T18:15:44.168Z,2.40
2024-02-07T18:17:46.909Z,1.65
2024-02-07T18:19:51.184Z,2.60
2024-02-07T18:21:53.921Z,1.58
2024-02-07T18:23:56.575Z,1.13
2024-02-07T18:26:00.596Z,2.10
2024-02-07T18:28:03.402Z,0.73
2024-02-07T18:30:05.605Z,1.08
2024-02-07T18:32:08.563Z,1.25
2024-02-07T18:34:11.309Z,1.25
2024-02-07T18:36:15.181Z,1.10
2024-02-07T18:38:17.787Z,1.90
2024-02-07T18:40:20.423Z,3.17
2024-02-07T18:42:24.492Z,1.15
2024-02-07T18:44:28.740Z,1.08
2024-02-07T18:46:31.351Z,0.95
2024-02-07T18:48:34.211Z,0.80
2024-02-07T18:50:37.705Z,1.60
2024-02-07T18:52:41.882Z,1.30
2024-02-07T18:54:44.735Z,1.60
2024-02-07T18:56:47.476Z,1.27
2024-02-07T18:58:51.605Z,0.75
2024-02-07T19:00:54.280Z,1.88
2024-02-07T19:02:56.923Z,1.30
2024-02-07T19:04:59.741Z,1.15
2024-02-07T19:07:05.208Z,1.38
2024-02-07T19:09:07.968Z,0.80
2024-02-07T19:11:10.751Z,0.93
2024-02-07T19:13:13.922Z,1.13
2024-02-07T19:15:21.325Z,0.90
2024-02-07T19:17:24.131Z,1.58
2024-02-07T19:19:27.057Z,2.45
2024-02-07T19:21:30.211Z,1.58
2024-02-07T19:23:32.903Z,2.28
2024-02-07T19:25:35.594Z,1.77
2024-02-07T19:27:42.009Z,1.23
2024-02-07T19:29:45.260Z,2.97
2024-02-07T19:31:48.354Z,1.40
2024-02-07T19:33:51.285Z,1.30
2024-02-07T19:35:53.977Z,1.40
2024-02-07T19:37:57.047Z,1.88
2024-02-07T19:39:59.794Z,1.50
2024-02-07T19:42:05.127Z,1.17
2024-02-07T19:44:07.859Z,1.92
2024-02-07T19:46:10.774Z,1.58
2024-02-07T19:48:13.940Z,1.08
2024-02-07T19:50:16.873Z,2.33
2024-02-07T19:52:19.617Z,1.10
2024-02-07T19:54:22.299Z,1.50
2024-02-07T19:56:25.048Z,1.83
2024-02-07T19:58:27.816Z,1.48
2024-02-07T20:00:30.668Z,2.38
2024-02-07T20:02:33.917Z,1.35
2024-02-07T20:04:38.021Z,1.85
2024-02-07T20:06:40.631Z,1.10
2024-02-07T20:08:43.892Z,1.60
2024-02-07T20:10:46.799Z,2.17
2024-02-07T20:12:49.437Z,1.30
2024-02-07T20:14:52.477Z,1.90
2024-02-07T20:16:55.403Z,2.20
2024-02-07T20:18:58.701Z,1.60
2024-02-07T20:21:03.080Z,1.48
2024-02-07T20:23:05.837Z,2.85
2024-02-07T20:25:11.077Z,1.52
2024-02-07T20:27:13.896Z,1.63
2024-02-07T20:29:15.894Z,1.45
2024-02-07T20:31:18.680Z,1.55
2024-02-07T20:33:21.410Z,2.30
2024-02-07T20:35:24.291Z,2.00
2024-02-07T20:37:28.373Z,1.60
2024-02-07T20:39:30.167Z,1.92
2024-02-07T20:41:39.981Z,1.65
2024-02-07T20:43:42.594Z,1.60
2024-02-07T20:45:45.320Z,1.23
2024-02-07T20:47:48.363Z,1.70
2024-02-07T20:49:51.407Z,2.30
2024-02-07T20:51:54.767Z,1.23
2024-02-07T20:53:59.762Z,1.83
2024-02-07T20:56:03.281Z,1.80
2024-02-07T20:58:06.430Z,1.58
2024-02-07T21:00:10.347Z,1.83
2024-02-07T21:02:12.980Z,2.15
2024-02-07T21:04:15.834Z,1.38
2024-02-07T21:06:21.414Z,1.13
2024-02-07T21:08:25.912Z,1.30
2024-02-07T21:10:30.118Z,1.50
2024-02-07T21:12:33.091Z,1.48
2024-02-07T21:14:37.596Z,1.80
2024-02-07T21:16:40.290Z,0.88
2024-02-07T21:18:43.814Z,1.33
2024-02-07T21:20:46.440Z,1.42
2024-02-07T21:22:49.083Z,1.88
2024-02-07T21:24:51.758Z,1.42
2024-02-07T21:26:55.874Z,1.75
2024-02-07T21:28:58.584Z,0.93
2024-02-07T21:31:01.696Z,1.20
2024-02-07T21:33:03.663Z,2.30
2024-02-07T21:35:09.481Z,1.75
2024-02-07T21:37:11.313Z,2.15
2024-02-07T21:39:13.924Z,1.52
2024-02-07T21:41:16.691Z,2.20
2024-02-07T21:43:21.037Z,2.00
2024-02-07T21:45:23.700Z,1.48
2024-02-07T21:47:26.539Z,1.77
2024-02-07T21:49:29.223Z,1.20
2024-02-07T21:51:34.030Z,1.25
2024-02-07T21:53:36.647Z,1.05
2024-02-07T21:55:39.319Z,0.93
2024-02-07T21:57:42.152Z,1.17
2024-02-07T21:59:46.111Z,1.83
2024-02-07T22:01:47.978Z,1.27
2024-02-07T22:03:50.612Z,1.15
2024-02-07T22:05:53.228Z,1.25
2024-02-07T22:07:55.976Z,1.27
2024-02-07T22:09:57.907Z,2.72
2024-02-07T22:12:03.313Z,1.42
2024-02-07T22:14:08.760Z,1.30
2024-02-07T22:16:12.357Z,1.67
2024-02-07T22:18:14.960Z,1.98
2024-02-07T22:20:17.793Z,2.50
2024-02-07T22:22:22.039Z,1.85
2024-02-07T22:24:24.657Z,0.88
2024-02-07T22:26:26.275Z,0.68
2024-02-07T22:28:29.121Z,1.70
2024-02-07T22:30:32.095Z,0.98
2024-02-07T22:32:36.259Z,1.00
2024-02-07T22:34:38.898Z,0.85
2024-02-07T22:36:41.598Z,0.75
2024-02-07T22:38:43.900Z,1.85
2024-02-07T22:40:46.866Z,1.48
2024-02-07T22:42:48.657Z,0.90
2024-02-07T22:44:51.358Z,1.75
2024-02-07T22:46:55.555Z,1.13
2024-02-07T22:48:59.652Z,1.40
2024-02-07T22:51:02.515Z,0.85
2024-02-07T22:53:05.377Z,1.42
2024-02-07T22:55:11.281Z,0.80
2024-02-07T22:57:13.946Z,1.10
2024-02-07T22:59:16.772Z,3.22
2024-02-07T23:01:19.420Z,1.50
2024-02-07T23:03:22.549Z,1.35
2024-02-07T23:05:28.694Z,2.00
2024-02-07T23:07:31.382Z,1.50
2024-02-07T23:09:33.101Z,0.70
2024-02-07T23:11:35.970Z,1.40
2024-02-07T23:13:38.701Z,1.20
2024-02-07T23:15:41.305Z,1.00
2024-02-07T23:17:44.040Z,1.33
2024-02-07T23:19:46.956Z,1.77
2024-02-07T23:21:50.990Z,0.80
2024-02-07T23:23:53.582Z,1.40
2024-02-07T23:25:56.255Z,2.17
2024-02-07T23:27:59.077Z,1.48
2024-02-07T23:30:01.752Z,0.93
2024-02-07T23:32:03.821Z,2.13
2024-02-07T23:34:06.474Z,1.10
2024-02-07T23:36:11.113Z,1.20
2024-02-07T23:38:15.276Z,1.30
2024-02-07T23:40:17.943Z,1.13
2024-02-07T23:42:20.564Z,1.00
2024-02-07T23:44:23.376Z,1.10
2024-02-07T23:46:26.017Z,2.58
2024-02-07T23:48:28.872Z,1.20
2024-02-07T23:50:31.539Z,1.60
2024-02-07T23:52:35.747Z,0.63
2024-02-07T23:54:39.887Z,2.25
2024-02-07T23:56:42.531Z,1.80
2024-02-07T23:58:45.524Z,1.42
